sensor_id;sensor_type;location;lat;lon;timestamp;P1;durP1;ratioP1;P2;durP2;ratioP2
34657;SDS011;20865;43.312;27.152;2023-11-19T12:45:49;14.70;;;7.20;;
34657;SDS011;20865;43.312;27.152;2023-11-19T12:48:17;12.82;;;6.85;;
34657;SDS011;20865;43.312;27.152;2023-11-19T12:50:51;12.82;;;7.28;;
34657;SDS011;20865;43.312;27.152;2023-11-19T12:53:20;15.30;;;6.53;;
34657;SDS011;20865;43.312;27.152;2023-11-19T12:55:48;13.28;;;6.25;;
34657;SDS011;20865;43.312;27.152;2023-11-19T12:58:32;13.60;;;6.10;;
34657;SDS011;20865;43.312;27.152;2023-11-19T13:01:10;9.98;;;5.65;;
34657;SDS011;20865;43.312;27.152;2023-11-19T13:03:35;8.38;;;5.15;;
34657;SDS011;20865;43.312;27.152;2023-11-19T13:06:06;11.65;;;6.10;;
34657;SDS011;20865;43.312;27.152;2023-11-19T13:08:43;10.68;;;6.33;;
34657;SDS011;20865;43.312;27.152;2023-11-19T13:11:14;11.43;;;6.50;;
34657;SDS011;20865;43.312;27.152;2023-11-19T13:13:58;9.85;;;5.45;;
34657;SDS011;20865;43.312;27.152;2023-11-19T13:16:31;10.88;;;5.33;;
34657;SDS011;20865;43.312;27.152;2023-11-19T13:18:59;9.75;;;5.35;;
34657;SDS011;20865;43.312;27.152;2023-11-19T13:21:26;9.88;;;5.70;;
34657;SDS011;20865;43.312;27.152;2023-11-19T13:23:55;10.63;;;5.80;;
34657;SDS011;20865;43.312;27.152;2023-11-19T13:26:23;8.28;;;5.53;;
34657;SDS011;20865;43.312;27.152;2023-11-19T13:28:50;7.40;;;4.58;;
34657;SDS011;20865;43.312;27.152;2023-11-19T13:31:18;9.80;;;5.15;;
34657;SDS011;20865;43.312;27.152;2023-11-19T13:33:45;7.58;;;4.42;;
34657;SDS011;20865;43.312;27.152;2023-11-19T13:36:13;7.62;;;4.55;;
34657;SDS011;20865;43.312;27.152;2023-11-19T13:38:41;8.03;;;4.20;;
34657;SDS011;20865;43.312;27.152;2023-11-19T13:41:10;7.45;;;3.85;;
34657;SDS011;20865;43.312;27.152;2023-11-19T13:43:39;6.30;;;3.92;;
34657;SDS011;20865;43.312;27.152;2023-11-19T13:46:07;5.40;;;3.70;;
34657;SDS011;20865;43.312;27.152;2023-11-19T13:48:35;7.12;;;3.92;;
34657;SDS011;20865;43.312;27.152;2023-11-19T13:51:03;6.42;;;4.15;;
34657;SDS011;20865;43.312;27.152;2023-11-19T13:53:31;6.87;;;4.20;;
34657;SDS011;20865;43.312;27.152;2023-11-19T13:55:59;6.70;;;4.22;;
34657;SDS011;20865;43.312;27.152;2023-11-19T13:58:27;6.70;;;3.85;;
34657;SDS011;20865;43.312;27.152;2023-11-19T14:00:54;11.18;;;4.47;;
34657;SDS011;20865;43.312;27.152;2023-11-19T14:03:23;6.45;;;4.15;;
34657;SDS011;20865;43.312;27.152;2023-11-19T14:05:51;8.03;;;4.12;;
34657;SDS011;20865;43.312;27.152;2023-11-19T14:08:20;6.03;;;3.92;;
34657;SDS011;20865;43.312;27.152;2023-11-19T14:10:48;6.47;;;4.60;;
34657;SDS011;20865;43.312;27.152;2023-11-19T14:13:15;5.95;;;3.90;;
34657;SDS011;20865;43.312;27.152;2023-11-19T14:15:43;9.38;;;5.40;;
34657;SDS011;20865;43.312;27.152;2023-11-19T14:18:10;9.78;;;3.98;;
34657;SDS011;20865;43.312;27.152;2023-11-19T14:20:38;7.25;;;4.35;;
34657;SDS011;20865;43.312;27.152;2023-11-19T14:23:06;10.30;;;4.72;;
34657;SDS011;20865;43.312;27.152;2023-11-19T14:25:34;7.00;;;3.98;;
34657;SDS011;20865;43.312;27.152;2023-11-19T14:28:02;8.70;;;4.15;;
34657;SDS011;20865;43.312;27.152;2023-11-19T14:30:30;8.15;;;4.90;;
34657;SDS011;20865;43.312;27.152;2023-11-19T14:32:59;6.55;;;4.03;;
34657;SDS011;20865;43.312;27.152;2023-11-19T14:35:26;7.10;;;4.30;;
34657;SDS011;20865;43.312;27.152;2023-11-19T14:37:55;9.60;;;4.55;;
34657;SDS011;20865;43.312;27.152;2023-11-19T14:40:23;8.45;;;4.40;;
34657;SDS011;20865;43.312;27.152;2023-11-19T14:42:51;5.62;;;3.92;;
34657;SDS011;20865;43.312;27.152;2023-11-19T14:45:19;6.47;;;3.92;;
34657;SDS011;20865;43.312;27.152;2023-11-19T14:47:47;5.37;;;3.70;;
34657;SDS011;20865;43.312;27.152;2023-11-19T14:50:15;7.95;;;4.78;;
34657;SDS011;20865;43.312;27.152;2023-11-19T14:52:44;7.35;;;4.15;;
34657;SDS011;20865;43.312;27.152;2023-11-19T14:55:11;8.85;;;4.80;;
34657;SDS011;20865;43.312;27.152;2023-11-19T14:57:39;7.45;;;4.50;;
34657;SDS011;20865;43.312;27.152;2023-11-19T15:00:09;6.53;;;4.12;;
34657;SDS011;20865;43.312;27.152;2023-11-19T15:02:41;6.92;;;4.33;;
34657;SDS011;20865;43.312;27.152;2023-11-19T15:05:09;8.08;;;4.62;;
34657;SDS011;20865;43.312;27.152;2023-11-19T15:07:37;11.03;;;5.08;;
34657;SDS011;20865;43.312;27.152;2023-11-19T15:10:06;10.28;;;5.35;;
34657;SDS011;20865;43.312;27.152;2023-11-19T15:12:36;11.12;;;5.78;;
34657;SDS011;20865;43.312;27.152;2023-11-19T15:15:07;6.90;;;4.03;;
34657;SDS011;20865;43.312;27.152;2023-11-19T15:17:41;7.80;;;4.78;;
34657;SDS011;20865;43.312;27.152;2023-11-19T15:20:10;8.90;;;4.53;;
34657;SDS011;20865;43.312;27.152;2023-11-19T15:22:40;11.78;;;4.65;;
34657;SDS011;20865;43.312;27.152;2023-11-19T15:25:08;9.45;;;5.00;;
34657;SDS011;20865;43.312;27.152;2023-11-19T15:27:36;14.00;;;6.37;;
34657;SDS011;20865;43.312;27.152;2023-11-19T15:30:04;11.73;;;5.78;;
34657;SDS011;20865;43.312;27.152;2023-11-19T15:32:34;9.85;;;5.33;;
34657;SDS011;20865;43.312;27.152;2023-11-19T15:35:02;9.98;;;5.17;;
34657;SDS011;20865;43.312;27.152;2023-11-19T15:37:30;9.30;;;5.30;;
34657;SDS011;20865;43.312;27.152;2023-11-19T15:39:57;9.45;;;5.05;;
34657;SDS011;20865;43.312;27.152;2023-11-19T15:42:25;12.43;;;7.95;;
34657;SDS011;20865;43.312;27.152;2023-11-19T15:44:52;7.67;;;4.72;;
34657;SDS011;20865;43.312;27.152;2023-11-19T15:47:20;9.58;;;4.65;;
34657;SDS011;20865;43.312;27.152;2023-11-19T15:49:48;8.43;;;5.00;;
34657;SDS011;20865;43.312;27.152;2023-11-19T15:52:18;9.28;;;5.00;;
34657;SDS011;20865;43.312;27.152;2023-11-19T15:54:47;8.00;;;4.58;;
34657;SDS011;20865;43.312;27.152;2023-11-19T15:57:15;7.58;;;4.42;;
34657;SDS011;20865;43.312;27.152;2023-11-19T15:59:42;8.13;;;4.47;;
34657;SDS011;20865;43.312;27.152;2023-11-19T16:02:10;10.20;;;4.83;;
34657;SDS011;20865;43.312;27.152;2023-11-19T16:04:39;8.68;;;4.70;;
34657;SDS011;20865;43.312;27.152;2023-11-19T16:07:07;7.67;;;4.22;;
34657;SDS011;20865;43.312;27.152;2023-11-19T16:09:35;10.48;;;5.25;;
34657;SDS011;20865;43.312;27.152;2023-11-19T16:12:03;7.65;;;4.35;;
34657;SDS011;20865;43.312;27.152;2023-11-19T16:14:31;7.33;;;4.60;;
34657;SDS011;20865;43.312;27.152;2023-11-19T16:16:59;10.75;;;5.10;;
34657;SDS011;20865;43.312;27.152;2023-11-19T16:19:26;7.92;;;4.90;;
34657;SDS011;20865;43.312;27.152;2023-11-19T16:21:54;9.88;;;5.53;;
34657;SDS011;20865;43.312;27.152;2023-11-19T16:24:21;12.33;;;6.12;;
34657;SDS011;20865;43.312;27.152;2023-11-19T16:26:51;13.72;;;5.37;;
34657;SDS011;20865;43.312;27.152;2023-11-19T16:29:18;10.08;;;5.78;;
34657;SDS011;20865;43.312;27.152;2023-11-19T16:31:46;12.73;;;6.75;;
34657;SDS011;20865;43.312;27.152;2023-11-19T16:34:15;12.00;;;6.75;;
34657;SDS011;20865;43.312;27.152;2023-11-19T16:36:42;9.93;;;5.80;;
34657;SDS011;20865;43.312;27.152;2023-11-19T16:39:11;11.45;;;5.83;;
34657;SDS011;20865;43.312;27.152;2023-11-19T16:41:40;11.33;;;5.95;;
34657;SDS011;20865;43.312;27.152;2023-11-19T16:44:08;15.88;;;6.78;;
34657;SDS011;20865;43.312;27.152;2023-11-19T16:46:35;13.10;;;5.60;;
34657;SDS011;20865;43.312;27.152;2023-11-19T16:49:03;12.88;;;6.10;;
34657;SDS011;20865;43.312;27.152;2023-11-19T16:51:30;11.48;;;5.83;;
34657;SDS011;20865;43.312;27.152;2023-11-19T16:53:59;9.98;;;5.45;;
34657;SDS011;20865;43.312;27.152;2023-11-19T16:56:28;10.65;;;6.05;;
34657;SDS011;20865;43.312;27.152;2023-11-19T16:58:57;12.45;;;6.22;;
34657;SDS011;20865;43.312;27.152;2023-11-19T17:01:25;10.13;;;5.75;;
34657;SDS011;20865;43.312;27.152;2023-11-19T17:03:52;10.72;;;6.12;;
34657;SDS011;20865;43.312;27.152;2023-11-19T17:06:20;10.28;;;5.75;;
34657;SDS011;20865;43.312;27.152;2023-11-19T17:08:49;10.30;;;5.60;;
34657;SDS011;20865;43.312;27.152;2023-11-19T17:11:18;15.43;;;5.35;;
34657;SDS011;20865;43.312;27.152;2023-11-19T17:13:46;11.93;;;5.95;;
34657;SDS011;20865;43.312;27.152;2023-11-19T17:16:16;10.93;;;6.00;;
34657;SDS011;20865;43.312;27.152;2023-11-19T17:18:43;12.43;;;6.12;;
34657;SDS011;20865;43.312;27.152;2023-11-19T17:21:11;13.83;;;6.55;;
34657;SDS011;20865;43.312;27.152;2023-11-19T17:23:39;11.35;;;6.25;;
34657;SDS011;20865;43.312;27.152;2023-11-19T17:26:07;12.13;;;6.03;;
34657;SDS011;20865;43.312;27.152;2023-11-19T17:28:34;11.40;;;6.53;;
34657;SDS011;20865;43.312;27.152;2023-11-19T17:31:02;9.70;;;5.67;;
34657;SDS011;20865;43.312;27.152;2023-11-19T17:33:31;11.20;;;6.55;;
34657;SDS011;20865;43.312;27.152;2023-11-19T17:35:59;10.72;;;5.90;;
34657;SDS011;20865;43.312;27.152;2023-11-19T17:38:27;10.78;;;5.37;;
34657;SDS011;20865;43.312;27.152;2023-11-19T17:40:55;9.20;;;5.53;;
34657;SDS011;20865;43.312;27.152;2023-11-19T17:43:23;12.45;;;6.20;;
34657;SDS011;20865;43.312;27.152;2023-11-19T17:45:51;11.63;;;6.10;;
34657;SDS011;20865;43.312;27.152;2023-11-19T17:48:20;14.07;;;6.10;;
34657;SDS011;20865;43.312;27.152;2023-11-19T17:50:48;12.80;;;6.78;;
34657;SDS011;20865;43.312;27.152;2023-11-19T17:53:16;13.05;;;6.22;;
34657;SDS011;20865;43.312;27.152;2023-11-19T17:55:45;11.95;;;5.90;;
34657;SDS011;20865;43.312;27.152;2023-11-19T17:58:13;20.15;;;6.25;;
34657;SDS011;20865;43.312;27.152;2023-11-19T18:00:40;12.43;;;7.22;;
34657;SDS011;20865;43.312;27.152;2023-11-19T18:03:08;12.90;;;7.67;;
34657;SDS011;20865;43.312;27.152;2023-11-19T18:05:36;15.08;;;7.80;;
34657;SDS011;20865;43.312;27.152;2023-11-19T18:08:05;14.68;;;7.33;;
34657;SDS011;20865;43.312;27.152;2023-11-19T18:10:34;13.98;;;7.90;;
34657;SDS011;20865;43.312;27.152;2023-11-19T18:13:02;13.68;;;7.25;;
34657;SDS011;20865;43.312;27.152;2023-11-19T18:15:29;16.35;;;6.72;;
34657;SDS011;20865;43.312;27.152;2023-11-19T18:17:57;13.53;;;6.95;;
34657;SDS011;20865;43.312;27.152;2023-11-19T18:20:25;11.93;;;6.22;;
34657;SDS011;20865;43.312;27.152;2023-11-19T18:22:52;16.23;;;7.30;;
34657;SDS011;20865;43.312;27.152;2023-11-19T18:25:20;12.03;;;6.58;;
34657;SDS011;20865;43.312;27.152;2023-11-19T18:27:48;12.60;;;7.22;;
34657;SDS011;20865;43.312;27.152;2023-11-19T18:30:17;12.93;;;6.83;;
34657;SDS011;20865;43.312;27.152;2023-11-19T18:32:45;13.00;;;7.08;;
34657;SDS011;20865;43.312;27.152;2023-11-19T18:35:13;18.85;;;7.78;;
34657;SDS011;20865;43.312;27.152;2023-11-19T18:37:44;11.97;;;6.70;;
34657;SDS011;20865;43.312;27.152;2023-11-19T18:40:11;12.13;;;6.53;;
34657;SDS011;20865;43.312;27.152;2023-11-19T18:42:40;10.72;;;6.58;;
34657;SDS011;20865;43.312;27.152;2023-11-19T18:45:08;15.18;;;6.85;;
34657;SDS011;20865;43.312;27.152;2023-11-19T18:47:37;13.00;;;6.97;;
34657;SDS011;20865;43.312;27.152;2023-11-19T18:50:05;16.42;;;8.15;;
34657;SDS011;20865;43.312;27.152;2023-11-19T18:52:34;13.75;;;7.45;;
34657;SDS011;20865;43.312;27.152;2023-11-19T18:55:02;12.00;;;6.65;;
34657;SDS011;20865;43.312;27.152;2023-11-19T18:57:31;15.25;;;7.55;;
34657;SDS011;20865;43.312;27.152;2023-11-19T18:59:58;13.65;;;7.45;;
34657;SDS011;20865;43.312;27.152;2023-11-19T19:02:27;12.70;;;6.90;;
34657;SDS011;20865;43.312;27.152;2023-11-19T19:04:55;12.53;;;6.65;;
34657;SDS011;20865;43.312;27.152;2023-11-19T19:07:23;15.00;;;7.67;;
34657;SDS011;20865;43.312;27.152;2023-11-19T19:09:51;14.53;;;7.30;;
34657;SDS011;20865;43.312;27.152;2023-11-19T19:12:20;15.48;;;7.33;;
34657;SDS011;20865;43.312;27.152;2023-11-19T19:14:48;15.35;;;6.87;;
34657;SDS011;20865;43.312;27.152;2023-11-19T19:17:17;13.38;;;7.03;;
34657;SDS011;20865;43.312;27.152;2023-11-19T19:19:45;11.73;;;6.97;;
34657;SDS011;20865;43.312;27.152;2023-11-19T19:22:14;12.50;;;7.10;;
34657;SDS011;20865;43.312;27.152;2023-11-19T19:24:41;11.93;;;6.58;;
34657;SDS011;20865;43.312;27.152;2023-11-19T19:27:09;12.63;;;7.10;;
34657;SDS011;20865;43.312;27.152;2023-11-19T19:29:36;13.22;;;6.67;;
34657;SDS011;20865;43.312;27.152;2023-11-19T19:32:05;13.98;;;6.87;;
34657;SDS011;20865;43.312;27.152;2023-11-19T19:34:33;14.85;;;6.75;;
34657;SDS011;20865;43.312;27.152;2023-11-19T19:37:01;12.10;;;7.15;;
34657;SDS011;20865;43.312;27.152;2023-11-19T19:39:30;14.38;;;7.87;;
34657;SDS011;20865;43.312;27.152;2023-11-19T19:41:59;16.45;;;7.60;;
34657;SDS011;20865;43.312;27.152;2023-11-19T19:44:29;12.98;;;7.67;;
34657;SDS011;20865;43.312;27.152;2023-11-19T19:46:56;15.38;;;6.78;;
34657;SDS011;20865;43.312;27.152;2023-11-19T19:49:25;13.70;;;7.78;;
34657;SDS011;20865;43.312;27.152;2023-11-19T19:51:54;17.17;;;7.40;;
34657;SDS011;20865;43.312;27.152;2023-11-19T19:54:22;15.58;;;8.05;;
34657;SDS011;20865;43.312;27.152;2023-11-19T19:56:50;15.75;;;8.15;;
34657;SDS011;20865;43.312;27.152;2023-11-19T19:59:21;13.88;;;7.17;;
34657;SDS011;20865;43.312;27.152;2023-11-19T20:01:49;13.13;;;7.70;;
34657;SDS011;20865;43.312;27.152;2023-11-19T20:04:17;13.55;;;7.53;;
34657;SDS011;20865;43.312;27.152;2023-11-19T20:06:44;12.53;;;6.95;;
34657;SDS011;20865;43.312;27.152;2023-11-19T20:09:13;12.70;;;6.80;;
34657;SDS011;20865;43.312;27.152;2023-11-19T20:11:42;13.48;;;7.30;;
34657;SDS011;20865;43.312;27.152;2023-11-19T20:14:11;14.53;;;7.42;;
34657;SDS011;20865;43.312;27.152;2023-11-19T20:16:39;13.95;;;7.05;;
34657;SDS011;20865;43.312;27.152;2023-11-19T20:19:07;10.95;;;6.33;;
34657;SDS011;20865;43.312;27.152;2023-11-19T20:21:36;16.12;;;7.12;;
34657;SDS011;20865;43.312;27.152;2023-11-19T20:24:03;12.35;;;6.25;;
34657;SDS011;20865;43.312;27.152;2023-11-19T20:26:32;13.30;;;6.70;;
34657;SDS011;20865;43.312;27.152;2023-11-19T20:29:00;10.72;;;6.30;;
34657;SDS011;20865;43.312;27.152;2023-11-19T20:31:28;13.48;;;7.22;;
34657;SDS011;20865;43.312;27.152;2023-11-19T20:33:56;13.75;;;7.12;;
34657;SDS011;20865;43.312;27.152;2023-11-19T20:36:26;13.62;;;6.72;;
34657;SDS011;20865;43.312;27.152;2023-11-19T20:38:53;17.73;;;6.53;;
34657;SDS011;20865;43.312;27.152;2023-11-19T20:41:21;15.10;;;6.62;;
34657;SDS011;20865;43.312;27.152;2023-11-19T20:43:50;10.85;;;5.78;;
34657;SDS011;20865;43.312;27.152;2023-11-19T20:46:18;11.97;;;5.92;;
34657;SDS011;20865;43.312;27.152;2023-11-19T20:48:46;11.83;;;6.17;;
34657;SDS011;20865;43.312;27.152;2023-11-19T20:51:19;9.90;;;5.90;;
34657;SDS011;20865;43.312;27.152;2023-11-19T20:53:44;11.85;;;6.28;;
34657;SDS011;20865;43.312;27.152;2023-11-19T20:56:11;12.50;;;5.55;;
34657;SDS011;20865;43.312;27.152;2023-11-19T20:58:39;10.78;;;6.62;;
34657;SDS011;20865;43.312;27.152;2023-11-19T21:01:07;11.95;;;6.47;;
34657;SDS011;20865;43.312;27.152;2023-11-19T21:03:35;11.40;;;5.33;;
34657;SDS011;20865;43.312;27.152;2023-11-19T21:06:03;12.05;;;6.15;;
34657;SDS011;20865;43.312;27.152;2023-11-19T21:08:31;15.65;;;5.78;;
34657;SDS011;20865;43.312;27.152;2023-11-19T21:10:59;10.90;;;5.75;;
34657;SDS011;20865;43.312;27.152;2023-11-19T21:13:28;11.97;;;6.53;;
34657;SDS011;20865;43.312;27.152;2023-11-19T21:15:59;12.70;;;6.35;;
34657;SDS011;20865;43.312;27.152;2023-11-19T21:18:26;9.65;;;5.50;;
34657;SDS011;20865;43.312;27.152;2023-11-19T21:20:55;10.43;;;5.92;;
34657;SDS011;20865;43.312;27.152;2023-11-19T21:23:23;13.95;;;6.03;;
34657;SDS011;20865;43.312;27.152;2023-11-19T21:25:50;10.20;;;5.97;;
34657;SDS011;20865;43.312;27.152;2023-11-19T21:28:18;10.72;;;5.55;;
34657;SDS011;20865;43.312;27.152;2023-11-19T21:30:46;12.03;;;5.75;;
34657;SDS011;20865;43.312;27.152;2023-11-19T21:33:13;12.33;;;5.40;;
34657;SDS011;20865;43.312;27.152;2023-11-19T21:35:41;15.65;;;5.62;;
34657;SDS011;20865;43.312;27.152;2023-11-19T21:38:08;14.60;;;6.35;;
34657;SDS011;20865;43.312;27.152;2023-11-19T21:40:36;10.00;;;5.17;;
34657;SDS011;20865;43.312;27.152;2023-11-19T21:43:04;9.68;;;4.97;;
34657;SDS011;20865;43.312;27.152;2023-11-19T21:45:31;8.23;;;5.33;;
34657;SDS011;20865;43.312;27.152;2023-11-19T21:47:59;8.63;;;5.12;;
34657;SDS011;20865;43.312;27.152;2023-11-19T21:50:26;9.68;;;4.92;;
34657;SDS011;20865;43.312;27.152;2023-11-19T21:52:54;10.58;;;5.72;;
34657;SDS011;20865;43.312;27.152;2023-11-19T21:55:22;10.95;;;5.22;;
34657;SDS011;20865;43.312;27.152;2023-11-19T21:57:51;15.58;;;6.28;;
34657;SDS011;20865;43.312;27.152;2023-11-19T22:00:19;9.63;;;5.40;;
34657;SDS011;20865;43.312;27.152;2023-11-19T22:02:48;10.05;;;4.75;;
34657;SDS011;20865;43.312;27.152;2023-11-19T22:05:16;9.55;;;5.90;;
34657;SDS011;20865;43.312;27.152;2023-11-19T22:07:46;8.53;;;5.20;;
34657;SDS011;20865;43.312;27.152;2023-11-19T22:10:14;8.05;;;4.75;;
34657;SDS011;20865;43.312;27.152;2023-11-19T22:12:42;9.08;;;4.90;;
34657;SDS011;20865;43.312;27.152;2023-11-19T22:15:09;12.13;;;6.10;;
34657;SDS011;20865;43.312;27.152;2023-11-19T22:17:37;12.13;;;6.17;;
34657;SDS011;20865;43.312;27.152;2023-11-19T22:20:05;9.95;;;5.22;;
34657;SDS011;20865;43.312;27.152;2023-11-19T22:22:33;10.68;;;6.10;;
34657;SDS011;20865;43.312;27.152;2023-11-19T22:25:01;14.28;;;7.37;;
34657;SDS011;20865;43.312;27.152;2023-11-19T22:27:29;13.93;;;7.15;;
34657;SDS011;20865;43.312;27.152;2023-11-19T22:29:57;10.80;;;6.22;;
34657;SDS011;20865;43.312;27.152;2023-11-19T22:32:24;21.80;;;9.03;;
34657;SDS011;20865;43.312;27.152;2023-11-19T22:34:52;34.92;;;13.72;;
34657;SDS011;20865;43.312;27.152;2023-11-19T22:37:20;26.25;;;10.45;;
34657;SDS011;20865;43.312;27.152;2023-11-19T22:39:47;13.30;;;6.47;;
34657;SDS011;20865;43.312;27.152;2023-11-19T22:42:17;12.35;;;5.35;;
34657;SDS011;20865;43.312;27.152;2023-11-19T22:44:45;11.25;;;5.62;;
34657;SDS011;20865;43.312;27.152;2023-11-19T22:47:13;11.12;;;5.15;;
34657;SDS011;20865;43.312;27.152;2023-11-19T22:49:41;11.00;;;5.85;;
34657;SDS011;20865;43.312;27.152;2023-11-19T22:52:08;8.93;;;4.97;;
34657;SDS011;20865;43.312;27.152;2023-11-19T22:54:36;10.75;;;5.50;;
34657;SDS011;20865;43.312;27.152;2023-11-19T22:57:04;9.58;;;4.80;;
34657;SDS011;20865;43.312;27.152;2023-11-19T22:59:32;9.35;;;4.78;;
34657;SDS011;20865;43.312;27.152;2023-11-19T23:02:00;10.45;;;5.30;;
34657;SDS011;20865;43.312;27.152;2023-11-19T23:04:29;12.20;;;6.15;;
34657;SDS011;20865;43.312;27.152;2023-11-19T23:06:57;8.58;;;4.80;;
34657;SDS011;20865;43.312;27.152;2023-11-19T23:09:26;8.18;;;4.25;;
34657;SDS011;20865;43.312;27.152;2023-11-19T23:11:54;8.80;;;4.45;;
34657;SDS011;20865;43.312;27.152;2023-11-19T23:14:21;9.83;;;5.35;;
34657;SDS011;20865;43.312;27.152;2023-11-19T23:16:49;8.53;;;4.75;;
34657;SDS011;20865;43.312;27.152;2023-11-19T23:19:17;8.00;;;3.83;;
34657;SDS011;20865;43.312;27.152;2023-11-19T23:21:45;7.12;;;4.00;;
34657;SDS011;20865;43.312;27.152;2023-11-19T23:24:13;7.37;;;3.70;;
34657;SDS011;20865;43.312;27.152;2023-11-19T23:26:41;8.35;;;4.03;;
34657;SDS011;20865;43.312;27.152;2023-11-19T23:29:10;7.65;;;4.10;;
34657;SDS011;20865;43.312;27.152;2023-11-19T23:31:39;6.35;;;3.67;;
34657;SDS011;20865;43.312;27.152;2023-11-19T23:34:07;8.58;;;4.37;;
34657;SDS011;20865;43.312;27.152;2023-11-19T23:36:34;7.03;;;4.08;;
34657;SDS011;20865;43.312;27.152;2023-11-19T23:39:02;6.10;;;3.77;;
34657;SDS011;20865;43.312;27.152;2023-11-19T23:41:31;9.83;;;4.53;;
34657;SDS011;20865;43.312;27.152;2023-11-19T23:43:59;8.15;;;4.20;;
34657;SDS011;20865;43.312;27.152;2023-11-19T23:46:27;8.33;;;4.33;;
34657;SDS011;20865;43.312;27.152;2023-11-19T23:48:54;9.08;;;5.10;;
34657;SDS011;20865;43.312;27.152;2023-11-19T23:51:22;8.25;;;4.22;;
34657;SDS011;20865;43.312;27.152;2023-11-19T23:53:50;9.35;;;4.40;;
34657;SDS011;20865;43.312;27.152;2023-11-19T23:56:18;10.85;;;4.78;;
34657;SDS011;20865;43.312;27.152;2023-11-19T23:58:46;8.35;;;4.25;;
